Time;durP1;ratioP1;P1;durP2;ratioP2;P2;SDS_P1;SDS_P2;PMS_P1;PMS_P2;Temp;Humidity;BMP_temperature;BMP_pressure;BME280_temperature;BME280_humidity;BME280_pressure;Samples;Min_cycle;Max_cycle;Signal;HPM_P1;HPM_P2
2021/01/30 00:00:17;;;;;;;30.13;24.33;;;6.40;99.90;;;;;;5113158;28;20187;-81
2021/01/30 00:02:43;;;;;;;29.08;24.45;;;6.40;99.90;;;;;;5111491;28;20175;-81
2021/01/30 00:05:10;;;;;;;31.43;24.47;;;6.40;99.90;;;;;;5112867;28;20712;-80
2021/01/30 00:07:35;;;;;;;32.38;26.73;;;6.40;99.90;;;;;;5113058;28;20203;-80
2021/01/30 00:10:01;;;;;;;34.70;28.10;;;6.40;99.90;;;;;;5111748;28;20669;-81
2021/01/30 00:12:26;;;;;;;29.30;26.10;;;6.40;99.90;;;;;;5112862;28;20178;-80
2021/01/30 00:14:54;;;;;;;33.57;29.80;;;6.40;99.90;;;;;;5111623;28;20190;-80
2021/01/30 00:17:19;;;;;;;34.80;30.40;;;6.40;99.90;;;;;;5112746;28;20180;-80
2021/01/30 00:19:45;;;;;;;38.40;28.93;;;6.30;99.90;;;;;;5111625;28;20179;-81
2021/01/30 00:22:14;;;;;;;41.37;30.93;;;6.30;99.90;;;;;;5112805;28;20654;-80
2021/01/30 00:24:43;;;;;;;56.97;36.75;;;6.30;99.90;;;;;;5111396;28;20430;-80
2021/01/30 00:27:16;;;;;;;40.05;31.73;;;6.30;99.90;;;;;;5112274;28;20210;-80
2021/01/30 00:29:42;;;;;;;36.35;31.33;;;6.30;99.90;;;;;;5111183;28;20627;-81
2021/01/30 00:32:09;;;;;;;31.60;25.87;;;6.20;99.90;;;;;;5112776;28;20268;-80
2021/01/30 00:34:36;;;;;;;30.15;24.33;;;6.20;99.90;;;;;;5111434;28;20773;-81
2021/01/30 00:37:21;;;;;;;27.05;23.17;;;6.20;99.90;;;;;;5112758;28;20214;-80
2021/01/30 00:39:49;;;;;;;25.67;22.67;;;6.20;99.90;;;;;;5111366;28;20194;-80
2021/01/30 00:42:16;;;;;;;27.23;23.23;;;6.20;99.90;;;;;;5116232;28;20215;-80
2021/01/30 00:44:42;;;;;;;28.73;25.23;;;6.20;99.90;;;;;;5116012;28;20180;-80
2021/01/30 00:47:09;;;;;;;29.00;25.95;;;6.20;99.90;;;;;;5116096;28;20299;-80
2021/01/30 00:49:35;;;;;;;30.05;24.10;;;6.20;99.90;;;;;;5116344;28;20179;-81
2021/01/30 00:52:02;;;;;;;27.33;23.50;;;6.10;99.90;;;;;;5114918;28;20204;-81
2021/01/30 00:54:27;;;;;;;32.70;25.85;;;6.10;99.90;;;;;;5115000;28;20191;-81
2021/01/30 00:56:55;;;;;;;26.80;24.00;;;6.10;99.90;;;;;;5116042;28;20543;-80
2021/01/30 00:59:22;;;;;;;28.88;24.30;;;6.10;99.90;;;;;;5116387;27;20620;-80
2021/01/30 01:01:50;;;;;;;24.10;21.45;;;6.10;99.90;;;;;;5116094;28;20650;-81
2021/01/30 01:04:17;;;;;;;28.95;24.17;;;6.10;99.90;;;;;;5116547;28;20209;-80
2021/01/30 01:06:43;;;;;;;29.50;23.25;;;6.20;99.90;;;;;;5114394;28;20205;-81
2021/01/30 01:09:10;;;;;;;25.90;22.77;;;6.20;99.90;;;;;;5116424;27;20587;-81
2021/01/30 01:11:37;;;;;;;25.17;22.48;;;6.20;99.90;;;;;;5115858;28;20176;-81
2021/01/30 01:14:04;;;;;;;25.77;22.60;;;6.20;99.90;;;;;;5116370;28;20616;-80
2021/01/30 01:16:29;;;;;;;28.10;23.02;;;6.20;99.90;;;;;;5115767;28;20245;-81
2021/01/30 01:18:55;;;;;;;26.37;21.87;;;6.10;99.90;;;;;;5116203;28;20652;-81
2021/01/30 01:21:21;;;;;;;34.50;25.80;;;6.10;99.90;;;;;;5114292;28;20944;-81
2021/01/30 01:23:47;;;;;;;34.90;24.93;;;6.10;99.90;;;;;;5114589;28;20463;-81
2021/01/30 01:26:16;;;;;;;27.73;23.48;;;6.10;99.90;;;;;;5114025;28;20172;-80
2021/01/30 01:28:42;;;;;;;29.10;23.30;;;6.10;99.90;;;;;;5115582;28;20236;-80
2021/01/30 01:31:10;;;;;;;28.00;21.63;;;6.10;99.90;;;;;;5114017;28;20175;-81
2021/01/30 01:33:35;;;;;;;25.77;22.02;;;6.10;99.90;;;;;;5114077;28;20176;-81
2021/01/30 01:36:01;;;;;;;29.60;23.57;;;6.00;99.90;;;;;;5115354;28;20264;-81
2021/01/30 01:38:27;;;;;;;26.37;21.63;;;6.00;99.90;;;;;;5115077;28;20263;-81
2021/01/30 01:40:52;;;;;;;26.67;21.47;;;6.00;99.90;;;;;;5113975;28;20195;-80
2021/01/30 01:43:26;;;;;;;25.90;21.27;;;6.00;99.90;;;;;;5115075;28;20427;-81
2021/01/30 01:46:10;;;;;;;24.20;20.33;;;6.00;99.90;;;;;;5113483;28;20172;-80
2021/01/30 01:48:40;;;;;;;24.58;20.52;;;6.00;99.90;;;;;;5114824;28;20195;-80
2021/01/30 01:51:11;;;;;;;24.15;18.60;;;6.00;99.90;;;;;;5113844;28;20180;-80
2021/01/30 01:53:41;;;;;;;24.33;20.30;;;6.00;99.90;;;;;;5114691;27;20259;-80
2021/01/30 01:56:12;;;;;;;24.85;19.17;;;6.00;99.90;;;;;;5113927;28;20644;-81
2021/01/30 01:58:42;;;;;;;24.70;19.52;;;6.00;99.90;;;;;;5114954;28;20231;-81
2021/01/30 02:01:08;;;;;;;25.38;19.60;;;5.90;99.90;;;;;;5113733;28;20176;-81
2021/01/30 02:03:34;;;;;;;23.30;19.35;;;6.00;99.90;;;;;;5114785;28;20168;-81
2021/01/30 02:06:01;;;;;;;24.40;20.10;;;6.00;99.90;;;;;;5114119;28;20204;-80
2021/01/30 02:08:28;;;;;;;25.83;20.08;;;5.90;99.90;;;;;;5114907;28;20179;-80
2021/01/30 02:10:54;;;;;;;26.95;20.20;;;6.00;99.90;;;;;;5114367;28;20232;-81
2021/01/30 02:13:27;;;;;;;23.52;19.60;;;6.00;99.90;;;;;;5113369;28;20650;-81
2021/01/30 02:16:12;;;;;;;23.00;19.35;;;6.00;99.90;;;;;;5114268;28;20205;-80
2021/01/30 02:19:15;;;;;;;24.52;19.40;;;5.90;99.90;;;;;;5114721;28;20184;-81
2021/01/30 02:22:14;;;;;;;28.67;19.35;;;5.90;99.90;;;;;;5114362;28;20624;-80
2021/01/30 02:25:07;;;;;;;23.83;18.00;;;5.90;99.90;;;;;;5112899;28;20719;-80
2021/01/30 02:27:42;;;;;;;21.85;18.75;;;5.90;99.90;;;;;;5112643;28;20207;-80
2021/01/30 02:30:46;;;;;;;22.10;18.50;;;5.90;99.90;;;;;;5114217;28;20181;-80
2021/01/30 02:33:33;;;;;;;24.60;18.88;;;5.80;99.90;;;;;;5114679;28;20193;-80
2021/01/30 02:36:14;;;;;;;24.30;19.55;;;5.80;99.90;;;;;;5114242;28;20720;-80
2021/01/30 02:38:45;;;;;;;28.60;19.67;;;5.80;99.90;;;;;;5112766;28;20168;-80
2021/01/30 02:41:17;;;;;;;23.13;18.90;;;5.80;99.90;;;;;;5112915;28;20654;-81
2021/01/30 02:43:47;;;;;;;24.00;19.05;;;5.90;99.90;;;;;;5113324;28;20585;-80
2021/01/30 02:46:23;;;;;;;20.20;17.10;;;5.90;99.90;;;;;;5112968;28;20180;-81
2021/01/30 02:48:54;;;;;;;22.42;17.08;;;5.90;99.90;;;;;;5112795;28;20266;-81
2021/01/30 02:51:25;;;;;;;20.50;16.80;;;5.90;99.90;;;;;;5112686;28;20168;-80
2021/01/30 02:53:56;;;;;;;20.95;16.92;;;5.90;99.90;;;;;;5113974;28;20589;-80
2021/01/30 02:56:23;;;;;;;19.67;15.93;;;6.00;99.90;;;;;;5112837;28;20188;-80
2021/01/30 02:59:14;;;;;;;16.30;14.60;;;6.10;99.90;;;;;;5112282;28;20235;-80
2021/01/30 03:01:40;;;;;;;15.23;13.63;;;6.10;99.90;;;;;;5103781;28;20235;-80
2021/01/30 03:04:14;;;;;;;14.70;13.30;;;6.20;99.90;;;;;;5113443;28;20175;-80
2021/01/30 03:06:54;;;;;;;17.23;13.25;;;6.20;99.90;;;;;;5113497;28;20423;-80
2021/01/30 03:09:23;;;;;;;13.48;12.07;;;6.20;99.90;;;;;;5112722;28;20183;-80
2021/01/30 03:12:03;;;;;;;17.10;13.77;;;6.20;99.90;;;;;;5112332;28;20191;-80
2021/01/30 03:14:29;;;;;;;14.93;13.32;;;6.20;99.90;;;;;;5113928;28;20231;-80
2021/01/30 03:16:59;;;;;;;15.65;13.98;;;6.10;99.90;;;;;;5113660;28;20770;-80
2021/01/30 03:19:29;;;;;;;13.05;11.20;;;6.20;99.90;;;;;;5113733;28;20726;-80
2021/01/30 03:22:04;;;;;;;15.02;11.85;;;6.10;99.90;;;;;;5113431;28;20607;-81
2021/01/30 03:24:30;;;;;;;14.65;13.07;;;6.10;99.90;;;;;;5113724;28;20180;-80
2021/01/30 03:26:56;;;;;;;14.40;13.00;;;6.10;99.90;;;;;;5113169;28;20202;-81
2021/01/30 03:29:22;;;;;;;20.03;12.00;;;6.10;99.90;;;;;;5113800;28;20172;-80
2021/01/30 03:31:49;;;;;;;14.07;12.47;;;6.10;99.90;;;;;;5113187;28;20432;-80
2021/01/30 03:34:15;;;;;;;13.35;11.68;;;6.10;99.90;;;;;;5112443;28;20705;-81
2021/01/30 03:36:41;;;;;;;15.63;11.95;;;6.10;99.90;;;;;;5111706;28;20539;-80
2021/01/30 03:39:11;;;;;;;15.25;12.57;;;6.20;99.90;;;;;;5113689;28;20616;-80
2021/01/30 03:41:53;;;;;;;15.90;14.20;;;6.10;99.90;;;;;;5112272;28;20183;-80
2021/01/30 03:44:18;;;;;;;17.13;14.15;;;6.10;99.90;;;;;;5111889;28;20187;-80
2021/01/30 03:46:44;;;;;;;14.40;11.87;;;6.10;99.90;;;;;;5111770;28;20610;-80
2021/01/30 03:49:10;;;;;;;16.27;13.80;;;6.00;99.90;;;;;;5113452;28;20180;-80
2021/01/30 03:51:35;;;;;;;18.17;13.87;;;6.00;99.90;;;;;;5111877;28;20175;-80
2021/01/30 03:54:01;;;;;;;18.00;14.13;;;6.00;99.90;;;;;;5113356;28;20187;-80
2021/01/30 03:56:27;;;;;;;16.23;14.53;;;5.90;99.90;;;;;;5111586;28;20187;-80
2021/01/30 03:58:52;;;;;;;16.47;13.87;;;6.00;99.90;;;;;;5113097;28;20238;-80
2021/01/30 04:01:18;;;;;;;18.27;14.60;;;5.90;99.90;;;;;;5112870;28;20172;-80
2021/01/30 04:03:49;;;;;;;18.93;15.90;;;5.90;99.90;;;;;;5111802;28;20187;-80
2021/01/30 04:06:16;;;;;;;17.83;15.90;;;5.90;99.90;;;;;;5112698;28;20156;-80
2021/01/30 04:08:42;;;;;;;23.20;17.30;;;5.90;99.90;;;;;;5111269;28;20180;-80
2021/01/30 04:11:08;;;;;;;20.65;16.73;;;5.90;99.90;;;;;;5111688;28;20324;-80
2021/01/30 04:13:34;;;;;;;18.60;16.30;;;5.80;99.90;;;;;;5113105;28;20532;-80
2021/01/30 04:15:59;;;;;;;21.75;17.30;;;5.70;99.90;;;;;;5114016;28;20403;-80
2021/01/30 04:18:25;;;;;;;19.10;16.30;;;5.60;99.90;;;;;;5115513;28;20656;-81
2021/01/30 04:20:51;;;;;;;20.27;16.50;;;5.60;99.90;;;;;;5116957;28;20225;-80
2021/01/30 04:23:16;;;;;;;24.17;19.70;;;5.50;99.90;;;;;;5115413;28;20191;-80
2021/01/30 04:25:42;;;;;;;31.33;24.10;;;5.50;99.90;;;;;;5116565;28;20569;-81
2021/01/30 04:28:08;;;;;;;26.30;21.63;;;5.40;99.90;;;;;;5116771;28;20288;-81
2021/01/30 04:30:34;;;;;;;27.50;21.75;;;5.30;99.90;;;;;;5116680;28;20213;-81
2021/01/30 04:33:00;;;;;;;31.73;24.40;;;5.30;99.90;;;;;;5116559;28;20188;-80
2021/01/30 04:35:31;;;;;;;37.80;28.63;;;5.20;99.90;;;;;;5117165;28;20259;-81
2021/01/30 04:37:57;;;;;;;29.77;23.80;;;5.10;99.90;;;;;;5115684;28;20764;-80
2021/01/30 04:40:47;;;;;;;26.50;22.70;;;5.10;99.90;;;;;;5116752;28;20172;-80
2021/01/30 04:43:33;;;;;;;31.95;24.10;;;5.00;99.90;;;;;;5116846;28;20519;-80
2021/01/30 04:46:01;;;;;;;31.95;23.40;;;5.00;99.90;;;;;;5116499;28;20182;-81
2021/01/30 04:48:48;;;;;;;27.05;23.83;;;5.00;99.90;;;;;;5116337;28;20256;-81
2021/01/30 04:51:20;;;;;;;26.10;22.85;;;4.90;99.90;;;;;;5114931;28;20176;-80
2021/01/30 04:53:52;;;;;;;31.00;23.63;;;4.90;99.90;;;;;;5115210;28;20651;-80
2021/01/30 04:56:38;;;;;;;27.80;23.27;;;4.90;99.90;;;;;;5115175;28;20179;-80
2021/01/30 04:59:19;;;;;;;26.67;21.73;;;4.90;99.90;;;;;;5116505;28;20219;-80
2021/01/30 05:02:11;;;;;;;28.60;22.45;;;4.90;99.90;;;;;;5116081;28;20160;-80
2021/01/30 05:04:41;;;;;;;28.73;22.92;;;5.00;99.90;;;;;;5115789;28;20183;-80
2021/01/30 05:07:13;;;;;;;26.75;21.90;;;5.00;99.90;;;;;;5114681;28;20298;-81
2021/01/30 05:09:53;;;;;;;24.20;21.17;;;5.00;99.90;;;;;;5116211;28;20152;-80
2021/01/30 05:12:40;;;;;;;21.58;19.25;;;4.90;99.90;;;;;;5116490;28;20156;-80
2021/01/30 05:15:17;;;;;;;22.40;19.92;;;4.90;99.90;;;;;;5116338;27;20710;-80
2021/01/30 05:18:00;;;;;;;21.33;18.95;;;4.90;99.90;;;;;;5116189;28;20190;-80
2021/01/30 05:20:33;;;;;;;23.50;20.98;;;4.90;99.90;;;;;;5114978;28;20654;-80
2021/01/30 05:23:03;;;;;;;23.15;20.35;;;4.90;99.90;;;;;;5114290;28;20183;-80
2021/01/30 05:25:28;;;;;;;24.58;20.15;;;4.90;99.90;;;;;;5114365;28;20525;-80
2021/01/30 05:28:21;;;;;;;26.63;20.57;;;4.90;99.90;;;;;;5114183;28;20215;-80
2021/01/30 05:31:20;;;;;;;31.83;23.83;;;4.90;99.90;;;;;;5114010;28;20900;-81
2021/01/30 05:34:07;;;;;;;29.23;23.60;;;4.90;99.90;;;;;;5114232;28;20183;-80
2021/01/30 05:36:44;;;;;;;30.00;23.98;;;4.70;99.90;;;;;;5115166;28;20229;-80
2021/01/30 05:39:26;;;;;;;28.05;22.65;;;4.70;99.90;;;;;;5115614;28;20187;-80
2021/01/30 05:42:19;;;;;;;34.42;25.27;;;4.60;99.90;;;;;;5115315;28;20148;-80
2021/01/30 05:45:06;;;;;;;27.20;24.30;;;4.50;99.90;;;;;;5115190;28;20180;-80
2021/01/30 05:47:33;;;;;;;31.10;25.42;;;4.40;99.90;;;;;;5113738;28;20215;-80
2021/01/30 05:50:24;;;;;;;29.65;24.05;;;4.40;99.90;;;;;;5113483;28;20179;-80
2021/01/30 05:52:50;;;;;;;27.73;23.17;;;4.40;99.90;;;;;;5114516;28;20207;-80
2021/01/30 05:55:31;;;;;;;27.50;22.53;;;4.50;99.90;;;;;;5114970;28;20656;-80
2021/01/30 05:58:02;;;;;;;29.73;24.15;;;4.50;99.90;;;;;;5113560;28;20589;-80
2021/01/30 06:00:28;;;;;;;26.80;23.13;;;4.60;99.90;;;;;;5113799;28;20282;-80
2021/01/30 06:03:11;;;;;;;28.98;24.52;;;4.50;99.90;;;;;;5113428;28;20196;-80
2021/01/30 06:05:45;;;;;;;32.65;25.63;;;4.50;99.90;;;;;;5113555;28;20183;-80
2021/01/30 06:08:13;;;;;;;32.20;26.00;;;4.40;99.90;;;;;;5113541;28;20225;-80
2021/01/30 06:10:40;;;;;;;30.15;25.50;;;4.40;99.90;;;;;;5112884;28;20175;-80
2021/01/30 06:13:09;;;;;;;30.38;24.23;;;4.40;99.90;;;;;;5114947;28;20172;-80
2021/01/30 06:15:38;;;;;;;27.88;23.10;;;4.50;99.90;;;;;;5113519;28;20172;-80
2021/01/30 06:18:31;;;;;;;28.33;24.05;;;4.50;99.90;;;;;;5113247;28;20215;-80
2021/01/30 06:21:10;;;;;;;28.20;22.25;;;4.40;99.90;;;;;;5113495;28;20168;-80
2021/01/30 06:23:37;;;;;;;32.90;24.27;;;4.50;99.90;;;;;;5114945;28;20505;-80
2021/01/30 06:26:23;;;;;;;38.58;30.55;;;4.50;99.90;;;;;;5113903;28;20167;-80
2021/01/30 06:28:58;;;;;;;35.55;28.60;;;4.40;99.90;;;;;;5114423;28;20266;-80
2021/01/30 06:31:39;;;;;;;29.40;24.58;;;4.40;99.90;;;;;;5112945;28;20182;-80
2021/01/30 06:34:24;;;;;;;38.40;28.58;;;4.30;99.90;;;;;;5113090;28;20186;-80
2021/01/30 06:36:52;;;;;;;32.47;26.52;;;4.40;99.90;;;;;;5085342;28;20192;-80
2021/01/30 06:39:26;;;;;;;47.70;39.00;;;4.50;99.90;;;;;;5102274;28;20191;-80
2021/01/30 06:41:56;;;;;;;90.80;67.25;;;4.60;99.90;;;;;;5113861;28;20242;-80
2021/01/30 06:44:29;;;;;;;75.93;62.47;;;4.70;99.90;;;;;;5114107;28;20671;-80
2021/01/30 06:47:07;;;;;;;92.88;69.68;;;4.80;99.90;;;;;;5113013;28;20559;-80
2021/01/30 06:49:36;;;;;;;115.00;84.50;;;4.90;99.90;;;;;;5112655;28;20198;-80
2021/01/30 06:52:08;;;;;;;106.80;80.28;;;4.90;99.90;;;;;;5112819;28;20182;-80
2021/01/30 06:54:34;;;;;;;91.78;64.85;;;5.00;99.90;;;;;;5113946;28;20282;-80
2021/01/30 06:57:19;;;;;;;63.47;51.80;;;5.00;99.90;;;;;;5112354;28;20180;-80
2021/01/30 06:59:59;;;;;;;48.63;37.83;;;5.00;99.90;;;;;;5112225;28;20175;-80
2021/01/30 07:02:45;;;;;;;57.60;47.22;;;4.90;99.90;;;;;;5112072;28;20199;-80
2021/01/30 07:05:23;;;;;;;33.58;26.50;;;5.00;99.90;;;;;;5113702;28;20171;-81
2021/01/30 07:07:52;;;;;;;31.25;26.23;;;5.00;99.90;;;;;;5113658;28;20200;-80
2021/01/30 07:10:52;;;;;;;30.27;27.05;;;5.10;99.90;;;;;;5113549;28;20573;-80
2021/01/30 07:13:30;;;;;;;27.52;22.55;;;5.20;99.90;;;;;;5112428;28;20188;-80
2021/01/30 07:16:20;;;;;;;26.30;23.15;;;5.20;99.90;;;;;;5112689;28;20215;-79
2021/01/30 07:18:56;;;;;;;33.20;23.27;;;5.30;99.90;;;;;;5114481;28;20246;-80
2021/01/30 07:21:26;;;;;;;20.27;18.17;;;5.40;99.90;;;;;;5113668;28;20564;-80
2021/01/30 07:24:22;;;;;;;21.58;19.02;;;5.50;99.90;;;;;;5112096;28;20183;-80
2021/01/30 07:26:56;;;;;;;96.88;58.58;;;5.50;99.90;;;;;;5112421;28;20195;-80
2021/01/30 07:29:41;;;;;;;67.78;42.65;;;5.50;99.90;;;;;;5112863;28;20191;-80
2021/01/30 07:32:20;;;;;;;38.20;28.55;;;5.60;99.90;;;;;;5112109;28;20182;-80
2021/01/30 07:35:00;;;;;;;31.00;23.98;;;5.70;99.90;;;;;;5113552;28;20152;-80
2021/01/30 07:37:43;;;;;;;21.10;18.50;;;5.80;99.90;;;;;;5113437;28;20183;-80
2021/01/30 07:40:14;;;;;;;24.15;20.25;;;5.90;99.90;;;;;;5113241;28;20659;-80
2021/01/30 07:43:21;;;;;;;34.50;24.90;;;5.90;99.90;;;;;;5113280;28;20179;-80
2021/01/30 07:46:21;;;;;;;27.25;21.13;;;6.00;99.90;;;;;;5054220;28;20829;-80
2021/01/30 07:48:52;;;;;;;41.15;30.88;;;6.20;99.90;;;;;;5089207;28;20199;-80
2021/01/30 07:51:45;;;;;;;23.80;18.50;;;6.30;99.90;;;;;;5114426;28;20183;-80
2021/01/30 07:54:12;;;;;;;25.55;19.25;;;6.30;99.90;;;;;;5118198;28;20180;-80
2021/01/30 07:56:55;;;;;;;20.90;18.42;;;6.30;99.90;;;;;;5117519;28;20203;-79
2021/01/30 07:59:35;;;;;;;20.33;15.85;;;6.40;99.90;;;;;;5116214;28;20200;-80
2021/01/30 08:02:21;;;;;;;20.42;17.85;;;6.60;99.90;;;;;;5116208;28;20179;-80
2021/01/30 08:04:55;;;;;;;21.58;19.10;;;6.70;99.90;;;;;;5115927;28;20188;-81
2021/01/30 08:08:09;;;;;;;21.83;19.38;;;6.80;99.90;;;;;;5115887;28;20214;-81
2021/01/30 08:10:56;;;;;;;20.40;18.20;;;6.90;99.90;;;;;;5117253;28;20191;-81
2021/01/30 08:13:51;;;;;;;29.02;24.35;;;7.20;99.90;;;;;;5116277;28;20176;-80
2021/01/30 08:16:22;;;;;;;25.77;22.27;;;7.60;99.90;;;;;;5106204;28;20187;-79
2021/01/30 08:18:50;;;;;;;16.67;13.63;;;7.70;99.90;;;;;;5117444;28;20221;-80
2021/01/30 08:21:55;;;;;;;16.08;14.23;;;8.30;99.90;;;;;;5117063;28;20167;-81
2021/01/30 08:24:27;;;;;;;22.25;20.05;;;9.10;99.90;;;;;;5116132;28;20256;-81
2021/01/30 08:27:01;;;;;;;22.60;20.00;;;9.40;99.90;;;;;;5117006;28;20192;-81
2021/01/30 08:29:38;;;;;;;46.90;27.70;;;9.30;99.90;;;;;;5117351;28;20598;-80
2021/01/30 08:32:25;;;;;;;66.85;50.63;;;9.10;99.90;;;;;;5116826;28;20167;-80
2021/01/30 08:34:57;;;;;;;17.90;15.80;;;9.20;99.90;;;;;;5116660;28;20187;-80
2021/01/30 08:37:25;;;;;;;13.55;12.25;;;9.80;99.90;;;;;;5116867;28;20176;-81
2021/01/30 08:40:03;;;;;;;20.55;18.58;;;9.80;99.90;;;;;;5116784;28;20687;-81
2021/01/30 08:42:36;;;;;;;20.35;18.45;;;9.50;99.90;;;;;;5116998;28;20596;-80
2021/01/30 08:45:04;;;;;;;29.58;26.58;;;9.50;99.90;;;;;;5116618;28;20258;-81
2021/01/30 08:47:35;;;;;;;28.48;25.58;;;9.70;99.90;;;;;;5116612;28;20694;-80
2021/01/30 08:50:01;;;;;;;19.88;17.08;;;9.60;99.90;;;;;;5114628;28;20183;-80
2021/01/30 08:52:35;;;;;;;17.87;16.00;;;9.80;99.90;;;;;;5107600;28;20181;-80
2021/01/30 08:55:35;;;;;;;18.75;16.55;;;9.90;99.90;;;;;;5094348;28;20176;-80
2021/01/30 08:58:01;;;;;;;10.75;9.70;;;9.70;99.90;;;;;;5094925;28;20242;-80
2021/01/30 09:00:27;;;;;;;12.00;10.80;;;9.30;99.90;;;;;;5096164;28;20180;-80
2021/01/30 09:03:01;;;;;;;12.60;11.37;;;9.50;99.90;;;;;;5093918;28;20428;-81
2021/01/30 09:05:26;;;;;;;9.75;8.85;;;9.90;99.90;;;;;;5095844;28;20180;-80
2021/01/30 09:07:59;;;;;;;13.40;12.17;;;10.10;99.90;;;;;;5095694;28;20297;-80
2021/01/30 09:10:33;;;;;;;11.57;10.57;;;10.20;99.90;;;;;;5095689;28;20161;-80
2021/01/30 09:13:04;;;;;;;11.30;10.20;;;10.10;99.60;;;;;;5094571;28;20219;-80
2021/01/30 09:15:41;;;;;;;10.80;9.68;;;10.10;99.80;;;;;;5094704;28;20172;-81
2021/01/30 09:18:22;;;;;;;15.15;13.65;;;10.10;99.90;;;;;;5095889;28;20214;-80
2021/01/30 09:20:56;;;;;;;13.95;12.15;;;10.10;99.90;;;;;;5095627;28;20187;-81
2021/01/30 09:23:55;;;;;;;19.88;16.15;;;10.20;99.90;;;;;;5094753;28;20782;-81
2021/01/30 09:26:58;;;;;;;22.35;16.13;;;10.10;99.90;;;;;;5095530;28;20157;-80
2021/01/30 09:29:33;;;;;;;9.15;8.20;;;10.00;99.90;;;;;;5095672;28;20226;-80
2021/01/30 09:31:59;;;;;;;10.00;9.00;;;9.80;99.90;;;;;;5095447;28;20168;-81
2021/01/30 09:34:30;;;;;;;14.23;12.80;;;9.80;99.90;;;;;;5097419;28;20176;-80
2021/01/30 09:36:56;;;;;;;29.75;21.88;;;9.80;99.90;;;;;;5114514;28;20235;-80
2021/01/30 09:39:40;;;;;;;26.42;23.70;;;9.70;99.90;;;;;;5116304;28;20574;-80
2021/01/30 09:42:18;;;;;;;21.83;19.73;;;9.70;99.90;;;;;;5113889;28;20532;-80
2021/01/30 09:44:47;;;;;;;24.60;22.45;;;9.90;99.90;;;;;;5114426;28;20229;-81
2021/01/30 09:47:21;;;;;;;20.10;18.10;;;10.00;99.90;;;;;;5115319;28;20713;-81
2021/01/30 09:49:55;;;;;;;16.85;14.88;;;10.10;99.90;;;;;;5114544;28;20167;-80
2021/01/30 09:52:21;;;;;;;11.85;10.68;;;10.00;99.90;;;;;;5115036;28;20628;-81
2021/01/30 09:55:07;;;;;;;14.43;12.88;;;10.10;99.90;;;;;;5115672;28;20628;-80
2021/01/30 09:57:34;;;;;;;11.30;9.30;;;10.30;99.90;;;;;;5114885;28;20211;-80
2021/01/30 10:00:12;;;;;;;11.45;10.25;;;10.40;99.80;;;;;;5114048;28;20200;-81
2021/01/30 10:02:38;;;;;;;16.50;13.60;;;10.50;99.80;;;;;;5113144;28;20225;-81
2021/01/30 10:05:15;;;;;;;9.00;8.10;;;10.60;99.40;;;;;;5115064;28;20172;-80
2021/01/30 10:07:43;;;;;;;9.65;8.65;;;10.70;99.20;;;;;;5113573;28;20222;-81
2021/01/30 10:10:26;;;;;;;7.63;6.93;;;10.80;99.50;;;;;;5113826;28;20179;-80
2021/01/30 10:12:53;;;;;;;7.20;6.60;;;10.70;99.50;;;;;;5113257;28;20274;-80
2021/01/30 10:15:34;;;;;;;7.95;7.00;;;10.90;98.80;;;;;;5114197;28;20588;-81
2021/01/30 10:18:03;;;;;;;6.75;6.00;;;11.10;98.80;;;;;;5113712;28;20207;-80
2021/01/30 10:20:42;;;;;;;5.97;5.38;;;11.20;97.70;;;;;;5114981;28;20176;-80
2021/01/30 10:23:09;;;;;;;6.43;5.85;;;11.40;96.90;;;;;;5115186;27;20203;-81
2021/01/30 10:25:35;;;;;;;7.50;6.70;;;11.70;97.20;;;;;;5113549;28;20259;-80
2021/01/30 10:28:09;;;;;;;6.93;6.33;;;11.80;97.90;;;;;;5114949;28;20294;-80
2021/01/30 10:30:36;;;;;;;6.93;6.22;;;11.90;96.20;;;;;;5114934;28;20166;-81
2021/01/30 10:33:08;;;;;;;8.30;6.53;;;12.10;96.20;;;;;;5114325;28;20263;-80
2021/01/30 10:35:54;;;;;;;5.63;5.17;;;12.30;95.70;;;;;;5114768;28;20453;-81
2021/01/30 10:38:26;;;;;;;4.97;4.53;;;12.30;94.40;;;;;;5114357;28;20424;-80
2021/01/30 10:41:03;;;;;;;5.37;4.83;;;12.40;93.50;;;;;;5113520;28;20384;-80
2021/01/30 10:43:34;;;;;;;6.60;5.97;;;12.00;93.50;;;;;;5114039;28;20412;-81
2021/01/30 10:46:04;;;;;;;7.87;7.27;;;12.10;93.70;;;;;;5113287;28;20868;-80
2021/01/30 10:48:33;;;;;;;10.00;8.37;;;12.00;92.80;;;;;;5113665;28;20562;-80
2021/01/30 10:51:04;;;;;;;13.70;12.20;;;12.10;93.00;;;;;;5114380;28;21009;-80
2021/01/30 10:53:39;;;;;;;14.00;12.57;;;11.90;94.50;;;;;;5113013;28;20420;-80
2021/01/30 10:56:20;;;;;;;16.40;14.70;;;11.90;94.90;;;;;;5114185;28;20413;-80
2021/01/30 10:58:47;;;;;;;10.97;9.63;;;11.90;94.60;;;;;;5113940;28;20455;-81
2021/01/30 11:01:31;;;;;;;14.10;11.17;;;12.00;94.90;;;;;;5112861;28;20379;-80
2021/01/30 11:03:59;;;;;;;17.83;15.33;;;12.10;94.20;;;;;;5113991;28;20444;-81
2021/01/30 11:06:43;;;;;;;19.27;17.27;;;12.20;94.40;;;;;;5113833;28;20404;-80
2021/01/30 11:09:22;;;;;;;20.07;17.30;;;12.10;94.20;;;;;;5112643;28;20436;-81
2021/01/30 11:11:50;;;;;;;17.97;16.20;;;12.80;95.20;;;;;;5112247;28;20487;-80
2021/01/30 11:14:27;;;;;;;19.23;17.07;;;13.10;94.20;;;;;;5112931;28;20439;-80
2021/01/30 11:16:55;;;;;;;17.13;15.00;;;12.90;94.00;;;;;;5113194;28;20396;-80
2021/01/30 11:19:21;;;;;;;30.17;26.87;;;12.90;92.90;;;;;;5112765;28;20969;-80
2021/01/30 11:21:47;;;;;;;37.40;30.47;;;12.70;93.30;;;;;;5112817;28;20404;-81
2021/01/30 11:24:46;;;;;;;35.30;30.60;;;12.90;93.30;;;;;;5113914;28;20192;-81
2021/01/30 11:27:34;;;;;;;20.37;18.40;;;12.70;91.50;;;;;;5110927;28;20433;-80
2021/01/30 11:30:15;;;;;;;13.30;11.53;;;12.90;91.90;;;;;;5113693;28;20396;-80
2021/01/30 11:32:47;;;;;;;7.80;7.10;;;13.00;92.10;;;;;;5113573;28;20443;-80
2021/01/30 11:35:19;;;;;;;7.37;6.67;;;13.20;91.10;;;;;;5112271;28;20445;-80
2021/01/30 11:37:46;;;;;;;9.63;5.70;;;13.20;90.90;;;;;;5114104;28;20416;-80
2021/01/30 11:40:15;;;;;;;4.97;4.47;;;13.50;90.20;;;;;;5112613;28;20443;-80
2021/01/30 11:42:40;;;;;;;4.80;4.30;;;13.80;90.30;;;;;;5112171;28;20439;-79
2021/01/30 11:45:07;;;;;;;5.27;4.83;;;13.80;86.80;;;;;;5112530;28;20415;-80
2021/01/30 11:47:35;;;;;;;4.80;4.30;;;14.00;87.80;;;;;;5112393;28;20215;-80
2021/01/30 11:50:00;;;;;;;4.17;3.77;;;14.20;84.90;;;;;;5113296;28;20462;-80
2021/01/30 11:52:27;;;;;;;3.70;3.40;;;14.30;83.50;;;;;;5112948;28;20408;-80
2021/01/30 11:54:53;;;;;;;5.30;3.33;;;14.60;84.30;;;;;;5112432;28;20304;-80
2021/01/30 11:57:19;;;;;;;3.37;3.07;;;14.50;77.60;;;;;;5113177;28;20483;-80
2021/01/30 11:59:45;;;;;;;5.20;4.07;;;14.50;79.40;;;;;;5104472;28;20787;-79
2021/01/30 12:02:21;;;;;;;3.30;3.00;;;14.70;79.40;;;;;;5092948;28;20820;-80
2021/01/30 12:04:46;;;;;;;2.80;2.60;;;14.80;79.40;;;;;;5093280;28;20895;-80
2021/01/30 12:07:12;;;;;;;2.37;2.17;;;14.90;78.80;;;;;;5092951;28;20503;-80
2021/01/30 12:09:37;;;;;;;4.20;3.90;;;14.90;73.90;;;;;;5093060;28;20173;-80
2021/01/30 12:12:03;;;;;;;3.30;3.00;;;14.90;75.20;;;;;;5093251;28;20176;-80
2021/01/30 12:14:29;;;;;;;3.60;3.27;;;14.90;77.40;;;;;;5092053;28;20182;-80
2021/01/30 12:16:56;;;;;;;2.47;2.27;;;14.80;75.10;;;;;;5093318;28;20408;-78
2021/01/30 12:19:28;;;;;;;2.90;2.60;;;14.80;75.50;;;;;;5093634;28;20602;-79
2021/01/30 12:21:54;;;;;;;4.93;3.30;;;14.70;75.30;;;;;;5091520;28;20909;-80
2021/01/30 12:24:19;;;;;;;2.90;2.70;;;14.60;74.40;;;;;;5093563;28;20427;-80
2021/01/30 12:26:45;;;;;;;3.13;2.83;;;14.70;79.40;;;;;;5093208;28;20215;-80
2021/01/30 12:29:11;;;;;;;3.17;2.77;;;14.50;76.50;;;;;;5092050;28;20180;-80
2021/01/30 12:31:36;;;;;;;3.73;3.40;;;14.70;76.90;;;;;;5091745;28;20405;-80
2021/01/30 12:34:02;;;;;;;3.93;3.63;;;14.80;78.30;;;;;;5092916;28;20685;-80
2021/01/30 12:36:28;;;;;;;5.73;5.10;;;14.60;78.60;;;;;;5112881;28;20176;-79
2021/01/30 12:38:54;;;;;;;5.93;5.33;;;14.80;79.80;;;;;;5117417;28;20424;-80
2021/01/30 12:41:20;;;;;;;5.20;4.73;;;14.70;78.90;;;;;;5117060;28;20168;-80
2021/01/30 12:43:45;;;;;;;3.93;3.63;;;14.30;80.80;;;;;;5115790;28;20262;-79
2021/01/30 12:46:11;;;;;;;4.00;3.70;;;14.00;82.70;;;;;;5114677;28;20472;-81
2021/01/30 12:48:37;;;;;;;5.73;5.10;;;14.00;81.70;;;;;;5115367;28;20221;-81
2021/01/30 12:51:03;;;;;;;5.03;4.60;;;13.90;83.60;;;;;;5115683;28;20408;-80
2021/01/30 12:53:30;;;;;;;7.53;6.83;;;14.00;84.60;;;;;;5116858;28;20191;-80
2021/01/30 12:55:56;;;;;;;9.13;7.70;;;14.10;86.40;;;;;;5115708;28;20867;-81
2021/01/30 12:58:28;;;;;;;7.93;7.13;;;14.00;85.80;;;;;;5117166;28;21004;-81
2021/01/30 13:00:55;;;;;;;9.73;7.30;;;14.10;87.00;;;;;;5116757;28;20489;-80
2021/01/30 13:03:23;;;;;;;9.60;6.10;;;14.20;88.30;;;;;;5116969;28;20470;-80
2021/01/30 13:05:50;;;;;;;6.50;5.87;;;14.20;87.50;;;;;;5114651;28;20795;-80
2021/01/30 13:08:17;;;;;;;5.47;4.97;;;14.10;87.00;;;;;;5115716;28;20499;-81